Kilmarnock, United Kingdom
Current Conditions -  °F | °C
As of 6:20 PM on Friday 31 Oct 2014 (Local Time) from EGPK Reporting Station
Broken Clouds Broken Clouds  
Wind Chill: 63°   Ceiling: 2200
Heat Index: 63°   Visibility: 6mi
Dew Point: 57°   Wind: 21mph
Humidity: 82%   Direction: 170°S
Pressure: 29.62"   Gusts: NA
Location:  55.61°N, 4.5°W
Report Text: EGPK 311820Z 17018KT 9999 BKN022 17/14 Q1003
Loading
Personal Weather Stations






























Interactive Weather Map
Tropical Storm Tracking
New forecast layout! Learn more

10-Day Weather Forecast

Advertisements
Track Severe Weather on mobile